Time;durP1;ratioP1;P1;durP2;ratioP2;P2;SDS_P1;SDS_P2;PMS_P1;PMS_P2;Temp;Humidity;BMP_temperature;BMP_pressure;BME280_temperature;BME280_humidity;BME280_pressure;Samples;Min_cycle;Max_cycle;Signal;HPM_P1;HPM_P2
2023/05/15 00:01:47;;;;;;;6.45;5.10;;;19.00;70.40;;;;;;10248868;28;20054;-55
2023/05/15 00:06:48;;;;;;;5.95;5.35;;;19.00;70.40;;;;;;10226782;29;20109;-55
2023/05/15 00:11:50;;;;;;;7.40;5.57;;;19.00;70.30;;;;;;10248489;28;20352;-55
2023/05/15 00:16:50;;;;;;;5.93;5.43;;;19.00;70.40;;;;;;10251426;28;20063;-55
2023/05/15 00:21:51;;;;;;;5.60;5.07;;;18.90;70.20;;;;;;10254244;28;20106;-55
2023/05/15 00:26:52;;;;;;;6.70;5.75;;;18.90;69.90;;;;;;10265735;28;20039;-55
2023/05/15 00:31:53;;;;;;;6.68;6.07;;;18.90;69.60;;;;;;10247729;28;20030;-54
2023/05/15 00:36:53;;;;;;;7.15;5.70;;;18.90;69.60;;;;;;10248393;28;20024;-55
2023/05/15 00:41:55;;;;;;;6.18;5.57;;;18.90;69.70;;;;;;10230238;28;20053;-55
2023/05/15 00:46:58;;;;;;;6.53;5.82;;;18.90;69.70;;;;;;10247516;29;20027;-55
2023/05/15 00:52:00;;;;;;;5.43;4.72;;;18.90;69.90;;;;;;10241813;28;20126;-54
2023/05/15 00:57:04;;;;;;;6.45;5.57;;;18.90;69.90;;;;;;10241337;28;20403;-54
2023/05/15 01:02:04;;;;;;;6.22;5.45;;;18.90;70.00;;;;;;10229174;28;20490;-54
2023/05/15 01:07:05;;;;;;;6.38;5.78;;;18.80;70.00;;;;;;10245994;29;20038;-55
2023/05/15 01:12:08;;;;;;;6.45;5.85;;;18.90;70.10;;;;;;10246159;28;20091;-56
2023/05/15 01:17:08;;;;;;;5.80;5.13;;;18.80;70.10;;;;;;10245828;28;20058;-55
2023/05/15 01:22:48;;;;;;;6.22;5.15;;;18.80;70.10;;;;;;10213119;28;20019;-55
2023/05/15 01:27:53;;;;;;;6.95;5.97;;;18.80;69.80;;;;;;10228674;29;20672;-54
2023/05/15 01:33:38;;;;;;;5.82;5.22;;;18.80;69.80;;;;;;10229026;28;20678;-54
2023/05/15 01:38:47;;;;;;;6.65;5.13;;;18.80;69.80;;;;;;10231765;28;20486;-54
2023/05/15 01:43:55;;;;;;;6.25;5.60;;;18.80;69.90;;;;;;10212584;29;20011;-56
2023/05/15 01:48:59;;;;;;;6.35;5.78;;;18.80;69.90;;;;;;10228457;28;20522;-56
2023/05/15 01:54:02;;;;;;;7.40;5.93;;;18.80;69.60;;;;;;10259659;28;20031;-55
2023/05/15 01:59:04;;;;;;;6.68;6.00;;;18.80;69.40;;;;;;10228037;29;20019;-56
2023/05/15 02:04:05;;;;;;;7.00;6.13;;;18.80;69.50;;;;;;10260519;28;20034;-55
2023/05/15 02:09:07;;;;;;;6.75;5.55;;;18.80;69.40;;;;;;10299431;28;20097;-54
2023/05/15 02:14:10;;;;;;;7.90;6.10;;;18.80;69.40;;;;;;10284120;28;20043;-55
2023/05/15 02:19:10;;;;;;;8.25;6.38;;;18.70;69.30;;;;;;10299169;28;20121;-56
2023/05/15 02:24:11;;;;;;;7.22;6.05;;;18.70;69.30;;;;;;10299158;28;20054;-56
2023/05/15 02:29:39;;;;;;;7.00;6.05;;;18.80;69.30;;;;;;10284231;28;20041;-55
2023/05/15 02:35:12;;;;;;;7.43;5.85;;;18.70;69.20;;;;;;10247191;28;20027;-54
2023/05/15 02:40:15;;;;;;;6.75;5.50;;;18.70;69.10;;;;;;10247022;28;20386;-56
2023/05/15 02:45:16;;;;;;;6.45;5.85;;;18.70;69.20;;;;;;10226738;29;20449;-56
2023/05/15 02:50:18;;;;;;;8.63;6.40;;;18.70;69.20;;;;;;10251825;28;20019;-56
2023/05/15 02:55:19;;;;;;;6.93;6.18;;;18.70;69.20;;;;;;10226223;28;20418;-54
2023/05/15 03:00:20;;;;;;;5.65;5.13;;;18.70;69.50;;;;;;10243653;29;20027;-54
2023/05/15 03:05:21;;;;;;;6.32;5.53;;;18.60;69.70;;;;;;10225989;28;20482;-55
2023/05/15 03:10:23;;;;;;;7.30;6.60;;;18.70;69.80;;;;;;10243487;28;20696;-55
2023/05/15 03:15:24;;;;;;;7.32;6.38;;;18.60;70.30;;;;;;10238748;28;20053;-55
2023/05/15 03:20:24;;;;;;;7.55;6.30;;;18.60;69.70;;;;;;10260120;28;20425;-54
2023/05/15 03:25:25;;;;;;;6.78;5.65;;;18.60;69.70;;;;;;10233949;28;20037;-56
2023/05/15 03:30:27;;;;;;;6.45;5.75;;;18.60;69.80;;;;;;10284245;28;20383;-55
2023/05/15 03:35:27;;;;;;;7.28;5.60;;;18.60;69.70;;;;;;10251820;28;20086;-54
2023/05/15 03:40:28;;;;;;;6.90;6.18;;;18.60;69.80;;;;;;10266400;28;20438;-55
2023/05/15 03:45:29;;;;;;;7.15;6.45;;;18.60;69.80;;;;;;10264401;28;20031;-55
2023/05/15 03:50:30;;;;;;;6.65;5.95;;;18.60;69.80;;;;;;10253093;28;20095;-55
2023/05/15 03:55:30;;;;;;;6.70;6.03;;;18.60;69.80;;;;;;10229129;28;20046;-56
2023/05/15 04:00:31;;;;;;;7.22;6.15;;;18.60;69.80;;;;;;10249502;28;20028;-56
2023/05/15 04:05:32;;;;;;;8.30;6.22;;;18.60;69.80;;;;;;10252976;28;20102;-55
2023/05/15 04:10:32;;;;;;;7.70;6.72;;;18.60;69.90;;;;;;10232303;29;20114;-56
2023/05/15 04:15:34;;;;;;;8.77;6.38;;;18.60;69.70;;;;;;10248899;28;20051;-55
2023/05/15 04:20:35;;;;;;;8.73;6.57;;;18.60;69.60;;;;;;10249101;28;20047;-56
2023/05/15 04:25:36;;;;;;;11.10;7.45;;;18.60;69.40;;;;;;10248384;28;20453;-54
2023/05/15 04:30:37;;;;;;;7.13;6.38;;;18.60;69.30;;;;;;10231305;29;20118;-55
2023/05/15 04:35:38;;;;;;;8.18;6.72;;;18.60;69.40;;;;;;10216754;28;20041;-56
2023/05/15 04:40:39;;;;;;;7.38;6.35;;;18.50;69.60;;;;;;10234798;28;20024;-56
2023/05/15 04:45:40;;;;;;;9.80;8.25;;;18.60;70.30;;;;;;10212866;29;20146;-55
2023/05/15 04:50:40;;;;;;;9.23;6.40;;;18.70;70.40;;;;;;10228536;28;20019;-56
2023/05/15 04:55:41;;;;;;;10.50;7.30;;;18.80;70.10;;;;;;10242740;28;20452;-55
2023/05/15 05:00:41;;;;;;;13.05;9.38;;;18.80;70.80;;;;;;10248080;28;20134;-55
2023/05/15 05:05:42;;;;;;;11.88;7.00;;;18.90;70.70;;;;;;10245438;29;20071;-55
2023/05/15 05:10:43;;;;;;;13.43;7.50;;;18.90;70.70;;;;;;10237542;28;20022;-55
2023/05/15 05:15:44;;;;;;;17.92;7.28;;;19.00;70.90;;;;;;10269850;28;20074;-57
2023/05/15 05:20:44;;;;;;;19.70;9.30;;;19.10;70.80;;;;;;10291725;28;20022;-56
2023/05/15 05:25:45;;;;;;;19.00;9.02;;;19.10;71.00;;;;;;10213244;29;20086;-56
2023/05/15 05:30:46;;;;;;;26.95;9.07;;;19.20;70.80;;;;;;10228886;28;20110;-54
2023/05/15 05:35:47;;;;;;;20.55;9.40;;;19.20;70.50;;;;;;10280297;28;20490;-55
2023/05/15 05:40:49;;;;;;;22.30;8.65;;;19.10;70.80;;;;;;10258914;28;20024;-56
2023/05/15 05:45:50;;;;;;;30.55;9.35;;;19.00;70.50;;;;;;10261903;28;20485;-55
2023/05/15 05:50:51;;;;;;;22.17;9.18;;;19.00;70.30;;;;;;10247857;28;20039;-56
2023/05/15 05:55:52;;;;;;;21.33;9.52;;;18.90;70.60;;;;;;10264534;28;20023;-55
2023/05/15 06:00:53;;;;;;;17.50;8.73;;;18.90;70.40;;;;;;10245117;28;20022;-56
2023/05/15 06:05:54;;;;;;;17.25;8.93;;;18.80;70.40;;;;;;10275349;28;20027;-56
2023/05/15 06:10:55;;;;;;;12.85;7.38;;;18.80;70.00;;;;;;10233540;28;20378;-56
2023/05/15 06:15:55;;;;;;;13.20;9.00;;;18.70;70.00;;;;;;10278533;28;20150;-55
2023/05/15 06:20:59;;;;;;;11.27;6.93;;;18.70;70.20;;;;;;10293405;28;20517;-55
2023/05/15 06:26:00;;;;;;;14.48;8.13;;;18.80;70.10;;;;;;10279385;28;20031;-55
2023/05/15 06:31:01;;;;;;;16.38;7.57;;;18.80;70.00;;;;;;10296500;28;20429;-54
2023/05/15 06:36:01;;;;;;;17.70;8.02;;;18.70;69.70;;;;;;10215279;28;20027;-56
2023/05/15 06:41:02;;;;;;;11.48;8.07;;;18.70;70.00;;;;;;10253035;28;20389;-57
2023/05/15 06:46:03;;;;;;;15.65;8.48;;;18.70;69.70;;;;;;10250935;28;20056;-54
2023/05/15 06:51:04;;;;;;;13.38;8.45;;;18.70;70.00;;;;;;10243428;28;20043;-55
2023/05/15 06:56:05;;;;;;;16.42;8.05;;;18.70;69.80;;;;;;10237726;28;20454;-56
2023/05/15 07:01:08;;;;;;;11.93;7.05;;;18.70;69.90;;;;;;10250979;28;20023;-55
2023/05/15 07:06:08;;;;;;;8.95;6.95;;;18.70;69.80;;;;;;10250515;28;20028;-57
2023/05/15 07:11:09;;;;;;;11.95;7.95;;;18.70;70.00;;;;;;10233610;29;20019;-56
2023/05/15 07:16:10;;;;;;;11.02;7.60;;;18.70;69.50;;;;;;10248778;28;20090;-55
2023/05/15 07:21:11;;;;;;;14.20;8.48;;;18.80;69.40;;;;;;10248025;28;20051;-54
2023/05/15 07:26:13;;;;;;;10.45;7.07;;;18.70;69.30;;;;;;10215864;28;20032;-54
2023/05/15 07:31:14;;;;;;;12.18;7.68;;;18.80;69.40;;;;;;10284179;28;20019;-56
2023/05/15 07:36:15;;;;;;;12.73;7.97;;;18.80;69.30;;;;;;10247803;28;20479;-55
2023/05/15 07:41:15;;;;;;;10.55;7.55;;;18.80;69.20;;;;;;10248439;29;20546;-54
2023/05/15 07:46:16;;;;;;;11.85;8.48;;;18.80;69.00;;;;;;10248246;28;20059;-55
2023/05/15 07:51:17;;;;;;;14.38;7.70;;;18.80;69.10;;;;;;10247088;28;20648;-56
2023/05/15 07:56:17;;;;;;;9.52;7.25;;;18.80;68.90;;;;;;10230782;29;20031;-55
2023/05/15 08:01:18;;;;;;;10.50;7.35;;;18.80;68.90;;;;;;10229865;28;20253;-55
2023/05/15 08:06:19;;;;;;;8.40;6.40;;;18.90;68.80;;;;;;10255109;28;20089;-55
2023/05/15 08:11:20;;;;;;;8.02;6.80;;;18.90;68.90;;;;;;10286664;28;20082;-55
2023/05/15 08:16:21;;;;;;;10.43;7.88;;;18.90;69.00;;;;;;10287436;28;20086;-56
2023/05/15 08:21:22;;;;;;;8.77;7.03;;;18.90;69.00;;;;;;10286549;28;20019;-56
2023/05/15 08:26:22;;;;;;;9.10;6.95;;;18.90;68.90;;;;;;10286401;28;20066;-54
2023/05/15 08:31:23;;;;;;;10.52;7.38;;;18.90;69.00;;;;;;10286198;28;20110;-56
2023/05/15 08:36:24;;;;;;;9.60;6.63;;;18.90;69.00;;;;;;10267613;28;20106;-55
2023/05/15 08:41:32;;;;;;;8.75;6.85;;;18.90;68.70;;;;;;10245796;28;20602;-55
2023/05/15 08:46:34;;;;;;;10.53;7.63;;;18.90;68.90;;;;;;10245650;28;20110;-56
2023/05/15 08:51:35;;;;;;;7.90;6.03;;;18.90;68.90;;;;;;10245930;28;20378;-55
2023/05/15 08:56:35;;;;;;;8.43;7.22;;;19.00;68.80;;;;;;10241328;28;20217;-53
2023/05/15 09:01:37;;;;;;;9.38;7.18;;;19.00;68.90;;;;;;10299911;28;20102;-55
2023/05/15 09:06:39;;;;;;;8.88;6.47;;;19.00;68.80;;;;;;10294553;28;20031;-56
2023/05/15 09:11:44;;;;;;;9.20;6.85;;;19.00;68.70;;;;;;10299477;28;20574;-55
2023/05/15 09:16:48;;;;;;;8.07;6.32;;;19.00;68.70;;;;;;10298935;28;20055;-54
2023/05/15 09:21:48;;;;;;;7.60;6.00;;;19.10;68.80;;;;;;10276746;28;20439;-55
2023/05/15 09:27:06;;;;;;;7.75;6.45;;;19.10;68.80;;;;;;10243877;28;20043;-54
2023/05/15 09:32:11;;;;;;;8.65;7.03;;;19.00;68.80;;;;;;10226394;28;20078;-55
2023/05/15 09:37:31;;;;;;;8.38;5.82;;;19.10;68.60;;;;;;10226935;29;20027;-56
2023/05/15 09:42:35;;;;;;;7.05;6.35;;;19.10;68.60;;;;;;10243666;28;20471;-56
2023/05/15 09:47:35;;;;;;;7.70;6.18;;;19.10;68.70;;;;;;10243425;28;20027;-55
2023/05/15 09:52:37;;;;;;;8.35;6.65;;;19.20;68.60;;;;;;10243087;29;20018;-56
2023/05/15 09:57:38;;;;;;;9.93;6.57;;;19.10;68.70;;;;;;10226018;29;20031;-55
2023/05/15 10:02:40;;;;;;;11.52;6.35;;;19.10;68.70;;;;;;10225796;29;20024;-56
2023/05/15 10:07:40;;;;;;;11.25;7.20;;;19.10;68.70;;;;;;10225944;28;20634;-56
2023/05/15 10:12:41;;;;;;;8.68;6.30;;;19.20;68.80;;;;;;10225146;28;20033;-55
2023/05/15 10:17:44;;;;;;;10.43;7.60;;;19.10;68.90;;;;;;10201456;29;20534;-55
2023/05/15 10:22:49;;;;;;;11.25;7.72;;;19.10;68.90;;;;;;10201127;29;20391;-56
2023/05/15 10:27:51;;;;;;;9.75;7.95;;;19.10;68.60;;;;;;10201424;29;20119;-54
2023/05/15 10:32:52;;;;;;;9.95;7.85;;;19.00;68.50;;;;;;10201561;29;20028;-56
2023/05/15 10:37:53;;;;;;;8.63;7.50;;;19.10;68.60;;;;;;10213422;29;20075;-56
2023/05/15 10:42:55;;;;;;;9.88;8.73;;;19.10;68.60;;;;;;10200573;29;20164;-56
2023/05/15 10:47:56;;;;;;;10.13;8.25;;;19.10;68.60;;;;;;10200336;29;20047;-55
2023/05/15 10:52:58;;;;;;;11.02;8.80;;;19.10;68.60;;;;;;10200639;29;20111;-56
2023/05/15 10:57:59;;;;;;;9.57;8.27;;;19.10;68.60;;;;;;10200460;29;20023;-54
2023/05/15 11:03:00;;;;;;;10.73;8.52;;;19.00;68.40;;;;;;10200618;29;20117;-56
2023/05/15 11:08:18;;;;;;;10.57;7.88;;;19.10;68.40;;;;;;10201666;29;20024;-57
2023/05/15 11:13:19;;;;;;;8.77;7.43;;;19.00;68.50;;;;;;10192063;29;20150;-56
2023/05/15 11:18:20;;;;;;;11.10;10.00;;;19.00;68.30;;;;;;10208218;29;20031;-55
2023/05/15 11:23:22;;;;;;;9.60;8.68;;;19.00;68.30;;;;;;10240696;28;20107;-54
2023/05/15 11:28:24;;;;;;;11.25;9.07;;;19.00;68.40;;;;;;10223425;28;20042;-55
2023/05/15 11:33:32;;;;;;;10.98;7.85;;;19.00;68.40;;;;;;10241117;28;20537;-55
2023/05/15 11:38:38;;;;;;;9.70;8.70;;;19.00;68.30;;;;;;10223825;29;20051;-56
2023/05/15 11:43:39;;;;;;;9.43;8.27;;;19.00;68.40;;;;;;10226627;28;20154;-57
2023/05/15 11:48:43;;;;;;;10.55;9.02;;;19.00;68.40;;;;;;10247895;28;20031;-57
2023/05/15 11:53:45;;;;;;;12.52;10.07;;;19.00;68.50;;;;;;10247984;28;20050;-56
2023/05/15 11:58:59;;;;;;;14.05;9.88;;;18.90;68.40;;;;;;10247971;29;20028;-56
2023/05/15 12:04:00;;;;;;;11.38;9.65;;;18.90;68.60;;;;;;10249827;28;20099;-56
2023/05/15 12:09:01;;;;;;;11.23;9.93;;;19.00;68.50;;;;;;10301947;28;20058;-55
2023/05/15 12:14:01;;;;;;;14.23;11.43;;;19.00;68.50;;;;;;10286663;28;20038;-55
2023/05/15 12:19:03;;;;;;;13.07;11.55;;;19.00;68.50;;;;;;10286891;28;20102;-56
2023/05/15 12:24:04;;;;;;;13.43;10.55;;;18.90;68.60;;;;;;10276049;28;20475;-56
2023/05/15 12:29:05;;;;;;;13.18;11.52;;;19.00;68.50;;;;;;10246203;29;20039;-56
2023/05/15 12:34:06;;;;;;;19.05;12.48;;;19.00;68.40;;;;;;10228785;28;20538;-55
2023/05/15 12:39:07;;;;;;;27.80;12.65;;;19.00;68.40;;;;;;10228643;29;20113;-56
2023/05/15 12:44:18;;;;;;;20.00;12.05;;;19.00;68.90;;;;;;10231930;28;20106;-57
2023/05/15 12:49:22;;;;;;;30.52;14.80;;;19.00;69.00;;;;;;10276214;28;20043;-56
2023/05/15 12:54:23;;;;;;;29.65;13.98;;;19.00;69.30;;;;;;10279039;28;20050;-56
2023/05/15 12:59:24;;;;;;;28.17;13.52;;;19.00;69.50;;;;;;10265050;28;20401;-56
2023/05/15 13:04:25;;;;;;;38.70;13.15;;;19.00;69.50;;;;;;10245305;28;20549;-56
2023/05/15 13:09:25;;;;;;;31.90;12.50;;;19.10;69.80;;;;;;10281610;28;20115;-55
2023/05/15 13:14:30;;;;;;;31.35;13.07;;;19.10;70.00;;;;;;10280130;28;20367;-57
2023/05/15 13:19:31;;;;;;;28.33;11.93;;;19.10;70.10;;;;;;10214557;28;20040;-55
2023/05/15 13:24:32;;;;;;;21.73;11.93;;;19.20;69.70;;;;;;10215335;29;20051;-54
2023/05/15 13:29:32;;;;;;;26.67;13.10;;;19.20;69.70;;;;;;10248936;28;20113;-55
2023/05/15 13:34:33;;;;;;;26.95;12.35;;;19.30;69.80;;;;;;10251068;28;20094;-56
2023/05/15 13:39:34;;;;;;;27.95;13.02;;;19.30;69.50;;;;;;10227093;28;20022;-55
2023/05/15 13:44:36;;;;;;;21.10;12.38;;;19.30;70.20;;;;;;10250677;28;20792;-57
2023/05/15 13:49:37;;;;;;;21.42;10.88;;;19.50;69.60;;;;;;10258015;28;20066;-56
2023/05/15 13:54:38;;;;;;;23.17;10.57;;;19.40;69.50;;;;;;10241159;29;20118;-56
2023/05/15 13:59:38;;;;;;;22.13;12.45;;;19.30;69.70;;;;;;10241683;28;20069;-56
2023/05/15 14:04:39;;;;;;;23.52;11.93;;;19.20;69.70;;;;;;10244781;29;20106;-55
2023/05/15 14:09:40;;;;;;;17.65;10.90;;;19.20;69.70;;;;;;10225412;29;20043;-55
2023/05/15 14:14:40;;;;;;;18.40;10.55;;;19.20;69.60;;;;;;10226588;29;20050;-56
2023/05/15 14:19:42;;;;;;;18.17;10.30;;;19.20;69.60;;;;;;10227276;29;20028;-56
2023/05/15 14:24:42;;;;;;;13.98;9.57;;;19.20;69.50;;;;;;10226911;28;20035;-54
2023/05/15 14:29:43;;;;;;;21.42;10.45;;;19.20;69.40;;;;;;10243661;29;20031;-57
2023/05/15 14:34:44;;;;;;;16.52;9.18;;;19.20;69.40;;;;;;10262019;28;20514;-56
2023/05/15 14:39:45;;;;;;;20.40;9.73;;;19.20;69.50;;;;;;10246153;28;20070;-55
2023/05/15 14:44:45;;;;;;;13.55;10.38;;;19.30;69.70;;;;;;10263549;28;20473;-56
2023/05/15 14:49:46;;;;;;;23.75;9.15;;;19.30;69.60;;;;;;10255631;28;20618;-56
2023/05/15 14:54:47;;;;;;;18.88;9.98;;;19.20;69.50;;;;;;10255701;28;20025;-56
2023/05/15 14:59:47;;;;;;;20.90;11.18;;;19.20;69.80;;;;;;10252122;28;20073;-56
2023/05/15 15:04:48;;;;;;;18.02;9.00;;;19.20;69.70;;;;;;10229360;28;20134;-55
2023/05/15 15:09:48;;;;;;;26.42;13.30;;;19.30;70.00;;;;;;10241151;28;20115;-55
2023/05/15 15:14:49;;;;;;;21.65;12.70;;;19.30;71.60;;;;;;10232475;28;20075;-55
2023/05/15 15:19:50;;;;;;;21.90;11.27;;;19.40;72.80;;;;;;10239457;28;20091;-57
2023/05/15 15:24:50;;;;;;;19.50;10.05;;;19.30;70.10;;;;;;10249226;28;20047;-58
2023/05/15 15:29:51;;;;;;;24.00;10.50;;;19.30;69.80;;;;;;10258025;28;20118;-57
2023/05/15 15:34:52;;;;;;;14.75;9.52;;;19.20;69.70;;;;;;10240757;28;20110;-56
2023/05/15 15:39:52;;;;;;;15.73;8.82;;;19.20;69.30;;;;;;10234963;28;20548;-57
2023/05/15 15:44:58;;;;;;;24.92;11.00;;;19.20;69.10;;;;;;10261584;28;20099;-57
2023/05/15 15:49:58;;;;;;;68.35;39.13;;;19.20;68.50;;;;;;10226246;28;20110;-57
2023/05/15 15:54:59;;;;;;;39.08;28.23;;;19.30;73.30;;;;;;10230251;28;20031;-56
2023/05/15 16:00:00;;;;;;;34.80;23.83;;;19.60;71.50;;;;;;10272472;28;20034;-56
2023/05/15 16:05:02;;;;;;;40.58;23.02;;;19.60;70.60;;;;;;10304200;28;20027;-59
2023/05/15 16:10:03;;;;;;;39.80;22.17;;;19.60;70.70;;;;;;10304073;28;20019;-56
2023/05/15 16:15:05;;;;;;;32.58;20.25;;;19.60;70.80;;;;;;10303902;28;20046;-56
2023/05/15 16:20:06;;;;;;;38.80;21.80;;;19.50;70.80;;;;;;10288763;28;20034;-55
2023/05/15 16:25:07;;;;;;;29.75;20.08;;;19.50;70.60;;;;;;10303234;28;20041;-56
2023/05/15 16:30:10;;;;;;;33.58;19.13;;;19.30;70.70;;;;;;10247576;28;20011;-56
2023/05/15 16:35:10;;;;;;;33.53;18.67;;;19.20;70.60;;;;;;10260072;28;20031;-57
2023/05/15 16:40:11;;;;;;;31.38;17.23;;;19.20;70.60;;;;;;10246611;28;20078;-58
2023/05/15 16:45:12;;;;;;;25.27;15.10;;;19.40;71.20;;;;;;10247987;28;20032;-58
2023/05/15 16:50:13;;;;;;;27.58;14.65;;;19.50;70.60;;;;;;10214880;29;20115;-56
2023/05/15 16:55:17;;;;;;;23.48;15.05;;;19.50;70.70;;;;;;10231596;28;20244;-54
2023/05/15 17:00:19;;;;;;;27.17;15.02;;;19.50;70.70;;;;;;10281247;28;20027;-56
2023/05/15 17:05:20;;;;;;;23.52;12.48;;;19.40;70.50;;;;;;10301758;28;20035;-57
2023/05/15 17:10:21;;;;;;;21.85;13.73;;;19.30;70.70;;;;;;10294587;28;20109;-57
2023/05/15 17:15:22;;;;;;;28.67;14.07;;;19.30;70.70;;;;;;10300938;28;20599;-57
2023/05/15 17:20:23;;;;;;;29.88;13.40;;;19.20;70.80;;;;;;10299984;28;20462;-56
2023/05/15 17:25:24;;;;;;;25.58;12.57;;;19.20;70.70;;;;;;10284699;28;20096;-56
2023/05/15 17:30:25;;;;;;;24.52;12.65;;;19.10;70.70;;;;;;10260004;28;20074;-57
2023/05/15 17:35:25;;;;;;;20.77;11.68;;;19.10;70.90;;;;;;10255391;28;20019;-55
2023/05/15 17:40:26;;;;;;;18.60;12.27;;;19.10;70.90;;;;;;10278169;28;20673;-56
2023/05/15 17:45:27;;;;;;;15.63;10.60;;;19.10;70.90;;;;;;10298922;28;20023;-56
2023/05/15 17:50:27;;;;;;;15.00;9.35;;;19.10;70.80;;;;;;10268939;28;20442;-52
2023/05/15 17:55:28;;;;;;;18.23;10.60;;;19.30;70.60;;;;;;10267068;28;20026;-56
2023/05/15 18:00:29;;;;;;;17.05;10.55;;;19.20;70.60;;;;;;10266624;28;20027;-56
2023/05/15 18:05:30;;;;;;;21.13;11.45;;;19.10;70.70;;;;;;10243468;28;20170;-55
2023/05/15 18:10:30;;;;;;;16.27;9.43;;;19.10;70.70;;;;;;10226255;28;20015;-56
2023/05/15 18:15:31;;;;;;;12.98;8.77;;;19.10;70.80;;;;;;10189002;29;1083347;-56
2023/05/15 18:20:32;;;;;;;16.23;9.18;;;19.10;70.60;;;;;;10242352;28;20115;-56
2023/05/15 18:25:35;;;;;;;16.60;9.38;;;19.20;70.60;;;;;;10250814;28;20039;-56
2023/05/15 18:30:36;;;;;;;13.90;8.02;;;19.20;71.60;;;;;;10227080;28;20034;-55
2023/05/15 18:35:37;;;;;;;13.88;9.25;;;19.30;71.00;;;;;;10255085;28;20110;-56
2023/05/15 18:40:38;;;;;;;16.23;8.65;;;19.20;70.40;;;;;;10245711;28;20038;-55
2023/05/15 18:45:39;;;;;;;13.40;8.70;;;19.10;71.80;;;;;;10283740;28;20703;-56
2023/05/15 18:50:40;;;;;;;11.80;7.88;;;19.10;71.00;;;;;;10242491;28;20447;-54
2023/05/15 18:55:40;;;;;;;15.00;8.02;;;19.10;71.10;;;;;;10253260;28;20046;-55
2023/05/15 19:00:41;;;;;;;15.35;8.10;;;19.00;71.00;;;;;;10248185;28;20675;-56
2023/05/15 19:05:42;;;;;;;9.63;7.13;;;19.10;71.00;;;;;;10266009;28;20129;-56
2023/05/15 19:10:49;;;;;;;10.73;7.03;;;19.00;71.00;;;;;;10282382;28;20057;-55
2023/05/15 19:15:53;;;;;;;10.10;7.38;;;19.00;70.90;;;;;;10242494;28;20074;-56
2023/05/15 19:20:55;;;;;;;11.25;7.30;;;18.90;71.00;;;;;;10254659;28;20027;-55
2023/05/15 19:25:56;;;;;;;11.23;7.20;;;18.90;70.80;;;;;;10267722;28;20405;-56
2023/05/15 19:30:56;;;;;;;11.32;6.90;;;18.90;71.30;;;;;;10296495;28;20031;-56
2023/05/15 19:35:57;;;;;;;10.02;6.70;;;18.90;71.20;;;;;;10242880;28;20102;-56
2023/05/15 19:40:58;;;;;;;7.80;6.05;;;18.90;71.10;;;;;;10225917;28;20122;-55
2023/05/15 19:45:58;;;;;;;9.40;6.90;;;18.80;71.10;;;;;;10242567;29;20031;-56
2023/05/15 19:50:59;;;;;;;8.95;7.03;;;18.80;71.10;;;;;;10243277;28;20110;-55
2023/05/15 19:56:00;;;;;;;7.93;5.25;;;18.80;71.00;;;;;;10259233;28;20464;-56
2023/05/15 20:01:00;;;;;;;9.27;6.03;;;18.80;71.10;;;;;;10227760;28;20102;-56
2023/05/15 20:06:02;;;;;;;5.22;4.22;;;18.80;71.00;;;;;;10282123;28;20753;-57
2023/05/15 20:11:02;;;;;;;6.40;4.00;;;18.80;70.90;;;;;;10304651;28;20038;-56
2023/05/15 20:16:07;;;;;;;6.05;4.38;;;18.80;70.90;;;;;;10304202;28;20077;-57
2023/05/15 20:21:08;;;;;;;5.82;3.63;;;18.70;70.80;;;;;;10276078;28;20027;-54
2023/05/15 20:26:09;;;;;;;5.35;3.28;;;18.70;70.80;;;;;;10231544;29;20043;-56
2023/05/15 20:31:10;;;;;;;6.82;3.92;;;18.70;70.40;;;;;;10231874;29;20058;-56
2023/05/15 20:36:11;;;;;;;5.47;3.50;;;18.70;70.60;;;;;;10260525;28;20055;-56
2023/05/15 20:41:11;;;;;;;5.05;3.00;;;18.60;70.40;;;;;;10248728;28;20047;-56
2023/05/15 20:46:12;;;;;;;6.70;4.03;;;18.60;70.30;;;;;;10215014;29;20075;-56
2023/05/15 20:51:13;;;;;;;5.43;4.38;;;18.60;70.40;;;;;;10230599;28;20019;-56
2023/05/15 20:56:13;;;;;;;4.90;3.58;;;18.60;70.30;;;;;;10248255;28;20023;-55
2023/05/15 21:01:14;;;;;;;5.22;3.10;;;18.60;70.20;;;;;;10283765;28;20063;-56
2023/05/15 21:06:15;;;;;;;5.95;3.08;;;18.60;69.90;;;;;;10287653;28;20027;-55
2023/05/15 21:11:16;;;;;;;5.88;3.22;;;18.60;69.80;;;;;;10262021;28;20061;-56
2023/05/15 21:16:16;;;;;;;4.35;3.15;;;18.60;70.00;;;;;;10259585;28;20460;-55
2023/05/15 21:21:17;;;;;;;5.18;3.35;;;18.60;69.70;;;;;;10286748;28;20023;-54
2023/05/15 21:26:18;;;;;;;5.10;2.67;;;18.50;69.30;;;;;;10257235;28;20565;-56
2023/05/15 21:31:19;;;;;;;3.55;2.38;;;18.50;69.40;;;;;;10229707;29;20106;-56
2023/05/15 21:36:20;;;;;;;5.47;2.78;;;18.50;69.20;;;;;;10246440;29;20023;-55
2023/05/15 21:41:20;;;;;;;4.13;2.50;;;18.50;69.00;;;;;;10235938;28;20535;-56
2023/05/15 21:46:21;;;;;;;5.93;2.85;;;18.50;68.80;;;;;;10245925;29;20032;-56
2023/05/15 21:51:22;;;;;;;5.10;2.67;;;18.60;69.20;;;;;;10240189;28;20463;-55
2023/05/15 21:56:23;;;;;;;4.30;2.22;;;18.50;69.00;;;;;;10245579;29;20114;-54
2023/05/15 22:01:23;;;;;;;4.47;2.67;;;18.50;68.80;;;;;;10227685;29;20098;-57
2023/05/15 22:06:24;;;;;;;4.90;2.75;;;18.50;68.70;;;;;;10226102;29;20035;-56
2023/05/15 22:11:25;;;;;;;4.90;2.40;;;18.50;68.60;;;;;;10244910;29;20075;-57
2023/05/15 22:16:26;;;;;;;4.13;2.10;;;18.50;68.80;;;;;;10244465;28;20066;-55
2023/05/15 22:21:26;;;;;;;5.47;2.60;;;18.40;68.40;;;;;;10274187;28;20427;-56
2023/05/15 22:26:27;;;;;;;3.22;1.95;;;18.40;68.40;;;;;;10284416;28;20034;-55
2023/05/15 22:31:28;;;;;;;5.82;2.40;;;18.40;68.40;;;;;;10278917;28;20058;-56
2023/05/15 22:36:29;;;;;;;4.28;2.63;;;18.40;68.30;;;;;;10256599;28;20050;-55
2023/05/15 22:41:30;;;;;;;3.33;2.05;;;18.40;68.20;;;;;;10235074;28;20019;-55
2023/05/15 22:46:31;;;;;;;4.53;2.22;;;18.40;67.90;;;;;;10248411;28;20031;-54
2023/05/15 22:51:32;;;;;;;3.85;2.17;;;18.40;67.90;;;;;;10226815;28;20107;-57
2023/05/15 22:56:33;;;;;;;4.10;2.25;;;18.40;67.90;;;;;;10226560;29;20015;-55
2023/05/15 23:01:33;;;;;;;4.32;1.90;;;18.40;68.40;;;;;;10269574;28;20078;-56
2023/05/15 23:06:34;;;;;;;3.75;1.73;;;18.40;67.90;;;;;;10283599;28;20540;-55
2023/05/15 23:11:36;;;;;;;4.00;1.88;;;18.40;67.70;;;;;;10283604;28;20019;-55
2023/05/15 23:16:37;;;;;;;3.15;1.88;;;18.40;67.70;;;;;;10279350;28;20074;-55
2023/05/15 23:21:38;;;;;;;3.17;1.50;;;18.40;67.60;;;;;;10243488;29;20129;-54
2023/05/15 23:26:38;;;;;;;3.88;1.70;;;18.30;67.50;;;;;;10243228;28;20122;-56
2023/05/15 23:31:39;;;;;;;4.43;2.22;;;18.30;67.70;;;;;;10243203;28;20027;-55
2023/05/15 23:36:40;;;;;;;2.85;2.08;;;18.30;67.60;;;;;;10243679;28;20106;-56
2023/05/15 23:41:41;;;;;;;5.30;2.20;;;18.30;67.30;;;;;;10248751;28;20031;-54
2023/05/15 23:46:41;;;;;;;4.30;2.35;;;18.30;67.40;;;;;;10233303;29;20042;-54
2023/05/15 23:51:42;;;;;;;3.15;1.88;;;18.30;67.40;;;;;;10232905;29;20654;-56
2023/05/15 23:56:43;;;;;;;3.35;2.08;;;18.30;67.20;;;;;;10250198;28;20103;-55
